This is the latest recevied weather packets stored in our database for station/object F4FEB-14. If no packets are shown the sender has not sent any weather packets the latest 10 day(s).
| Time | Temp. | Humidity | Pressure | Rain* | Wind** | Luminosity | Snow |
|---|---|---|---|---|---|---|---|
| 1777995944 | 13.89° C | 100% | 1011 hPa | 0 mm | - | - | - |
| 1777995642 | 13.89° C | 100% | 1010.9 hPa | 0 mm | - | - | - |
| 1777994739 | 13.33° C | 100% | 1010.8 hPa | 0 mm | - | - | - |
| 1777994437 | 13.33° C | 100% | 1010.8 hPa | 0 mm | - | - | - |
| 1777994135 | 12.78° C | 100% | 1010.7 hPa | 0 mm | - | - | - |
| 1777993834 | 12.78° C | 100% | 1010.8 hPa | 0 mm | - | - | - |
| 1777993532 | 12.78° C | 100% | 1010.8 hPa | 1.27 mm | - | - | - |
| 1777993231 | 12.78° C | 100% | 1010.6 hPa | 1.27 mm | - | - | - |
| 1777992627 | 13.89° C | 100% | 1010.6 hPa | 1.27 mm | - | - | - |
| 1777992025 | 16.11° C | 100% | 1010.3 hPa | 0.25 mm | - | - | - |
| 1777991724 | 17.22° C | 100% | 1010.1 hPa | 0 mm | - | - | - |
| 1777991423 | 17.78° C | 100% | 1010.1 hPa | 0 mm | - | - | - |
| 1777991122 | 18.33° C | 100% | 1010 hPa | 0 mm | - | - | - |
| 1777990821 | 18.33° C | 100% | 1010 hPa | 0 mm | - | - | - |
| 1777990520 | 18.33° C | 100% | 1010 hPa | 0 mm | - | - | - |
| 1777989916 | 18.33° C | 100% | 1009.9 hPa | 0 mm | - | - | - |
| 1777989616 | 17.78° C | 100% | 1010 hPa | 0 mm | - | - | - |
| 1777989313 | 17.22° C | 100% | 1010 hPa | 0 mm | - | - | - |
| 1777989013 | 17.22° C | 100% | 1010.1 hPa | 0 mm | - | - | - |
| 1777988712 | 16.11° C | 100% | 1010.2 hPa | 0 mm | - | - | - |
| 1777988411 | 16.11° C | 100% | 1010.2 hPa | 0 mm | - | - | - |
| 1777988110 | 16.67° C | 100% | 1010.1 hPa | 0 mm | - | - | - |
| 1777987507 | 15.56° C | 100% | 1010.3 hPa | 0 mm | - | - | - |
| 1777987206 | 16.11° C | 100% | 1010.3 hPa | 0 mm | - | - | - |
| 1777986903 | 15.56° C | 100% | 1010.4 hPa | 0 mm | - | - | - |
* Rain latest hour (hover to see other rain measurements)
** Current wind speed in m/s (hover to see current wind gust speed)